sensor_id;sensor_type;location;lat;lon;timestamp;temperature;humidity
59977;DHT22;45837;51.076;3.578;2022-09-09T00:02:11;23.30;57.00
59977;DHT22;45837;51.076;3.578;2022-09-09T00:04:41;23.30;56.90
59977;DHT22;45837;51.076;3.578;2022-09-09T00:07:28;23.30;56.90
59977;DHT22;45837;51.076;3.578;2022-09-09T00:10:37;23.30;57.00
59977;DHT22;45837;51.076;3.578;2022-09-09T00:21:18;23.30;56.70
59977;DHT22;45837;51.076;3.578;2022-09-09T00:23:48;23.30;56.80
59977;DHT22;45837;51.076;3.578;2022-09-09T00:26:25;23.30;56.80
59977;DHT22;45837;51.076;3.578;2022-09-09T00:29:13;23.30;56.80
59977;DHT22;45837;51.076;3.578;2022-09-09T00:31:40;23.30;56.80
59977;DHT22;45837;51.076;3.578;2022-09-09T00:34:19;23.30;57.40
59977;DHT22;45837;51.076;3.578;2022-09-09T00:36:48;23.30;56.80
59977;DHT22;45837;51.076;3.578;2022-09-09T00:39:32;23.30;56.80
59977;DHT22;45837;51.076;3.578;2022-09-09T00:42:16;23.30;56.70
59977;DHT22;45837;51.076;3.578;2022-09-09T00:44:51;23.30;56.80
59977;DHT22;45837;51.076;3.578;2022-09-09T00:50:52;23.20;56.70
59977;DHT22;45837;51.076;3.578;2022-09-09T00:56:13;23.20;56.70
59977;DHT22;45837;51.076;3.578;2022-09-09T00:59:07;23.20;56.70
59977;DHT22;45837;51.076;3.578;2022-09-09T01:01:37;23.20;56.70
59977;DHT22;45837;51.076;3.578;2022-09-09T01:04:16;23.20;56.70
59977;DHT22;45837;51.076;3.578;2022-09-09T01:06:46;23.20;56.70
59977;DHT22;45837;51.076;3.578;2022-09-09T01:12:11;23.20;56.50
59977;DHT22;45837;51.076;3.578;2022-09-09T01:15:24;23.20;56.50
59977;DHT22;45837;51.076;3.578;2022-09-09T01:20:53;23.20;56.40
59977;DHT22;45837;51.076;3.578;2022-09-09T01:26:25;23.20;56.40
59977;DHT22;45837;51.076;3.578;2022-09-09T01:28:54;23.20;56.50
59977;DHT22;45837;51.076;3.578;2022-09-09T01:34:26;23.20;56.30
59977;DHT22;45837;51.076;3.578;2022-09-09T01:37:10;23.20;56.30
59977;DHT22;45837;51.076;3.578;2022-09-09T01:39:39;23.20;56.30
59977;DHT22;45837;51.076;3.578;2022-09-09T01:42:13;23.20;56.20
59977;DHT22;45837;51.076;3.578;2022-09-09T01:44:40;23.20;56.20
59977;DHT22;45837;51.076;3.578;2022-09-09T01:47:07;23.20;56.10
59977;DHT22;45837;51.076;3.578;2022-09-09T01:49:38;23.20;56.20
59977;DHT22;45837;51.076;3.578;2022-09-09T01:52:11;23.20;56.20
59977;DHT22;45837;51.076;3.578;2022-09-09T01:54:38;23.20;56.20
59977;DHT22;45837;51.076;3.578;2022-09-09T01:57:20;23.10;56.20
59977;DHT22;45837;51.076;3.578;2022-09-09T02:00:05;23.20;56.20
59977;DHT22;45837;51.076;3.578;2022-09-09T02:03:05;23.10;56.10
59977;DHT22;45837;51.076;3.578;2022-09-09T02:05:56;23.20;56.20
59977;DHT22;45837;51.076;3.578;2022-09-09T02:08:47;23.20;56.20
59977;DHT22;45837;51.076;3.578;2022-09-09T02:11:17;23.10;56.00
59977;DHT22;45837;51.076;3.578;2022-09-09T02:14:05;23.10;56.10
59977;DHT22;45837;51.076;3.578;2022-09-09T02:19:11;23.10;56.20
59977;DHT22;45837;51.076;3.578;2022-09-09T02:21:57;23.10;56.10
59977;DHT22;45837;51.076;3.578;2022-09-09T02:24:26;23.20;56.10
59977;DHT22;45837;51.076;3.578;2022-09-09T02:27:07;23.20;56.20
59977;DHT22;45837;51.076;3.578;2022-09-09T02:29:37;23.10;56.10
59977;DHT22;45837;51.076;3.578;2022-09-09T02:32:06;23.20;56.20
59977;DHT22;45837;51.076;3.578;2022-09-09T02:34:40;23.20;56.20
59977;DHT22;45837;51.076;3.578;2022-09-09T02:37:08;23.20;56.20
59977;DHT22;45837;51.076;3.578;2022-09-09T02:39:37;23.10;56.20
59977;DHT22;45837;51.076;3.578;2022-09-09T02:42:05;23.10;56.20
59977;DHT22;45837;51.076;3.578;2022-09-09T02:44:32;23.10;56.20
59977;DHT22;45837;51.076;3.578;2022-09-09T02:47:53;23.10;56.20
59977;DHT22;45837;51.076;3.578;2022-09-09T02:50:11;23.10;56.20
59977;DHT22;45837;51.076;3.578;2022-09-09T02:55:37;23.10;56.30
59977;DHT22;45837;51.076;3.578;2022-09-09T02:58:07;23.10;56.20
59977;DHT22;45837;51.076;3.578;2022-09-09T03:00:35;23.10;56.40
59977;DHT22;45837;51.076;3.578;2022-09-09T03:03:03;23.10;56.40
59977;DHT22;45837;51.076;3.578;2022-09-09T03:05:32;23.10;56.30
59977;DHT22;45837;51.076;3.578;2022-09-09T03:07:58;23.10;56.30
59977;DHT22;45837;51.076;3.578;2022-09-09T03:10:24;23.10;56.40
59977;DHT22;45837;51.076;3.578;2022-09-09T03:12:50;23.10;56.30
59977;DHT22;45837;51.076;3.578;2022-09-09T03:15:17;23.10;56.40
59977;DHT22;45837;51.076;3.578;2022-09-09T03:17:43;23.10;56.40
59977;DHT22;45837;51.076;3.578;2022-09-09T03:20:09;23.10;56.40
59977;DHT22;45837;51.076;3.578;2022-09-09T03:22:36;23.10;56.30
59977;DHT22;45837;51.076;3.578;2022-09-09T03:25:03;23.10;56.20
59977;DHT22;45837;51.076;3.578;2022-09-09T03:27:29;23.10;56.30
59977;DHT22;45837;51.076;3.578;2022-09-09T03:29:56;23.00;56.30
59977;DHT22;45837;51.076;3.578;2022-09-09T03:32:24;23.00;56.30
59977;DHT22;45837;51.076;3.578;2022-09-09T03:34:53;23.00;56.30
59977;DHT22;45837;51.076;3.578;2022-09-09T03:37:19;23.00;56.30
59977;DHT22;45837;51.076;3.578;2022-09-09T03:39:47;23.00;56.40
59977;DHT22;45837;51.076;3.578;2022-09-09T03:42:16;23.00;56.30
59977;DHT22;45837;51.076;3.578;2022-09-09T03:44:46;23.00;56.40
59977;DHT22;45837;51.076;3.578;2022-09-09T03:47:21;23.00;56.40
59977;DHT22;45837;51.076;3.578;2022-09-09T03:49:49;23.00;56.30
59977;DHT22;45837;51.076;3.578;2022-09-09T03:52:15;23.00;56.40
59977;DHT22;45837;51.076;3.578;2022-09-09T03:54:42;23.00;56.40
59977;DHT22;45837;51.076;3.578;2022-09-09T03:57:09;23.00;57.00
59977;DHT22;45837;51.076;3.578;2022-09-09T03:59:36;23.00;56.30
59977;DHT22;45837;51.076;3.578;2022-09-09T04:02:03;23.00;56.30
59977;DHT22;45837;51.076;3.578;2022-09-09T04:04:28;23.00;56.40
59977;DHT22;45837;51.076;3.578;2022-09-09T04:06:54;23.00;56.40
59977;DHT22;45837;51.076;3.578;2022-09-09T04:09:20;23.00;56.40
59977;DHT22;45837;51.076;3.578;2022-09-09T04:11:48;23.00;56.40
59977;DHT22;45837;51.076;3.578;2022-09-09T04:14:15;23.00;56.40
59977;DHT22;45837;51.076;3.578;2022-09-09T04:16:41;23.00;56.40
59977;DHT22;45837;51.076;3.578;2022-09-09T04:19:11;23.00;56.40
59977;DHT22;45837;51.076;3.578;2022-09-09T04:21:41;22.90;56.30
59977;DHT22;45837;51.076;3.578;2022-09-09T04:24:08;22.90;56.30
59977;DHT22;45837;51.076;3.578;2022-09-09T04:26:35;22.90;56.30
59977;DHT22;45837;51.076;3.578;2022-09-09T04:29:03;22.90;56.20
59977;DHT22;45837;51.076;3.578;2022-09-09T04:31:30;22.90;56.30
59977;DHT22;45837;51.076;3.578;2022-09-09T04:33:56;22.80;56.60
59977;DHT22;45837;51.076;3.578;2022-09-09T04:36:22;22.80;56.90
59977;DHT22;45837;51.076;3.578;2022-09-09T04:38:51;22.90;57.20
59977;DHT22;45837;51.076;3.578;2022-09-09T04:41:17;22.90;57.50
59977;DHT22;45837;51.076;3.578;2022-09-09T04:43:45;22.90;57.80
59977;DHT22;45837;51.076;3.578;2022-09-09T04:46:13;23.00;57.70
59977;DHT22;45837;51.076;3.578;2022-09-09T04:48:43;22.90;57.60
59977;DHT22;45837;51.076;3.578;2022-09-09T04:51:13;22.90;57.70
59977;DHT22;45837;51.076;3.578;2022-09-09T04:53:39;22.90;57.70
59977;DHT22;45837;51.076;3.578;2022-09-09T04:56:16;23.00;57.90
59977;DHT22;45837;51.076;3.578;2022-09-09T04:59:01;23.00;57.90
59977;DHT22;45837;51.076;3.578;2022-09-09T05:01:40;23.00;57.80
59977;DHT22;45837;51.076;3.578;2022-09-09T05:04:07;23.00;57.80
59977;DHT22;45837;51.076;3.578;2022-09-09T05:06:34;23.00;57.60
59977;DHT22;45837;51.076;3.578;2022-09-09T05:09:02;23.00;57.70
59977;DHT22;45837;51.076;3.578;2022-09-09T05:11:31;23.00;58.00
59977;DHT22;45837;51.076;3.578;2022-09-09T05:14:30;23.00;58.00
59977;DHT22;45837;51.076;3.578;2022-09-09T05:16:56;23.00;57.60
59977;DHT22;45837;51.076;3.578;2022-09-09T05:19:24;22.90;57.50
59977;DHT22;45837;51.076;3.578;2022-09-09T05:21:51;22.80;57.50
59977;DHT22;45837;51.076;3.578;2022-09-09T05:24:22;22.80;57.60
59977;DHT22;45837;51.076;3.578;2022-09-09T05:26:51;22.80;57.60
59977;DHT22;45837;51.076;3.578;2022-09-09T05:29:17;22.70;57.60
59977;DHT22;45837;51.076;3.578;2022-09-09T05:31:45;22.70;57.70
59977;DHT22;45837;51.076;3.578;2022-09-09T05:34:15;22.60;57.70
59977;DHT22;45837;51.076;3.578;2022-09-09T05:36:40;22.60;57.80
59977;DHT22;45837;51.076;3.578;2022-09-09T05:39:07;22.60;57.90
59977;DHT22;45837;51.076;3.578;2022-09-09T05:41:33;22.60;57.80
59977;DHT22;45837;51.076;3.578;2022-09-09T05:44:02;22.60;57.90
59977;DHT22;45837;51.076;3.578;2022-09-09T05:46:30;22.50;57.90
59977;DHT22;45837;51.076;3.578;2022-09-09T05:48:56;22.60;58.00
59977;DHT22;45837;51.076;3.578;2022-09-09T05:51:28;22.50;58.00
59977;DHT22;45837;51.076;3.578;2022-09-09T05:53:57;22.50;58.10
59977;DHT22;45837;51.076;3.578;2022-09-09T05:56:29;22.50;57.90
59977;DHT22;45837;51.076;3.578;2022-09-09T05:58:56;22.50;58.10
59977;DHT22;45837;51.076;3.578;2022-09-09T06:01:28;22.50;58.10
59977;DHT22;45837;51.076;3.578;2022-09-09T06:03:56;22.50;58.10
59977;DHT22;45837;51.076;3.578;2022-09-09T06:06:25;22.40;58.20
59977;DHT22;45837;51.076;3.578;2022-09-09T06:08:55;22.40;58.20
59977;DHT22;45837;51.076;3.578;2022-09-09T06:11:26;22.40;58.30
59977;DHT22;45837;51.076;3.578;2022-09-09T06:13:52;22.40;58.40
59977;DHT22;45837;51.076;3.578;2022-09-09T06:16:22;22.40;58.50
59977;DHT22;45837;51.076;3.578;2022-09-09T06:18:53;22.30;59.10
59977;DHT22;45837;51.076;3.578;2022-09-09T06:21:22;22.30;58.50
59977;DHT22;45837;51.076;3.578;2022-09-09T06:23:49;22.30;58.70
59977;DHT22;45837;51.076;3.578;2022-09-09T06:26:21;22.30;58.70
59977;DHT22;45837;51.076;3.578;2022-09-09T06:28:50;22.30;58.70
59977;DHT22;45837;51.076;3.578;2022-09-09T06:31:21;22.30;58.80
59977;DHT22;45837;51.076;3.578;2022-09-09T06:33:49;22.30;58.80
59977;DHT22;45837;51.076;3.578;2022-09-09T06:36:17;22.20;58.90
59977;DHT22;45837;51.076;3.578;2022-09-09T06:38:44;22.30;59.00
59977;DHT22;45837;51.076;3.578;2022-09-09T06:43:46;22.30;58.90
59977;DHT22;45837;51.076;3.578;2022-09-09T06:46:14;22.20;59.00
59977;DHT22;45837;51.076;3.578;2022-09-09T06:48:41;22.20;59.10
59977;DHT22;45837;51.076;3.578;2022-09-09T06:51:16;22.20;59.20
59977;DHT22;45837;51.076;3.578;2022-09-09T06:53:45;22.20;59.10
59977;DHT22;45837;51.076;3.578;2022-09-09T06:56:21;22.20;59.20
59977;DHT22;45837;51.076;3.578;2022-09-09T06:58:51;22.20;59.20
59977;DHT22;45837;51.076;3.578;2022-09-09T07:01:25;22.20;59.40
59977;DHT22;45837;51.076;3.578;2022-09-09T07:03:53;22.20;59.30
59977;DHT22;45837;51.076;3.578;2022-09-09T07:06:25;22.20;59.30
59977;DHT22;45837;51.076;3.578;2022-09-09T07:08:56;22.20;59.40
59977;DHT22;45837;51.076;3.578;2022-09-09T07:11:28;22.30;59.20
59977;DHT22;45837;51.076;3.578;2022-09-09T07:13:57;22.20;59.20
59977;DHT22;45837;51.076;3.578;2022-09-09T07:16:23;22.20;59.20
59977;DHT22;45837;51.076;3.578;2022-09-09T07:18:51;22.20;59.30
59977;DHT22;45837;51.076;3.578;2022-09-09T07:21:17;22.20;59.20
59977;DHT22;45837;51.076;3.578;2022-09-09T07:23:44;22.20;59.10
59977;DHT22;45837;51.076;3.578;2022-09-09T07:26:13;22.20;59.20
59977;DHT22;45837;51.076;3.578;2022-09-09T07:28:40;22.20;59.00
59977;DHT22;45837;51.076;3.578;2022-09-09T07:31:12;22.20;59.10
59977;DHT22;45837;51.076;3.578;2022-09-09T07:33:39;22.20;59.20
59977;DHT22;45837;51.076;3.578;2022-09-09T07:36:15;22.20;59.20
59977;DHT22;45837;51.076;3.578;2022-09-09T07:38:43;22.20;59.10
59977;DHT22;45837;51.076;3.578;2022-09-09T07:41:17;22.20;59.30
59977;DHT22;45837;51.076;3.578;2022-09-09T07:43:46;22.20;59.20
59977;DHT22;45837;51.076;3.578;2022-09-09T07:46:14;22.20;59.30
59977;DHT22;45837;51.076;3.578;2022-09-09T07:48:45;22.30;59.20
59977;DHT22;45837;51.076;3.578;2022-09-09T07:51:15;22.20;59.20
59977;DHT22;45837;51.076;3.578;2022-09-09T07:53:46;22.20;59.20
59977;DHT22;45837;51.076;3.578;2022-09-09T07:56:14;22.20;59.30
59977;DHT22;45837;51.076;3.578;2022-09-09T07:58:45;22.20;59.20
59977;DHT22;45837;51.076;3.578;2022-09-09T08:01:21;22.20;59.30
59977;DHT22;45837;51.076;3.578;2022-09-09T08:03:56;22.20;59.40
59977;DHT22;45837;51.076;3.578;2022-09-09T08:06:25;22.20;59.30
59977;DHT22;45837;51.076;3.578;2022-09-09T08:08:53;22.20;59.30
59977;DHT22;45837;51.076;3.578;2022-09-09T08:11:23;22.20;59.20
59977;DHT22;45837;51.076;3.578;2022-09-09T08:13:51;22.20;59.30
59977;DHT22;45837;51.076;3.578;2022-09-09T08:16:19;22.20;59.30
59977;DHT22;45837;51.076;3.578;2022-09-09T08:18:49;22.20;59.30
59977;DHT22;45837;51.076;3.578;2022-09-09T08:21:24;22.20;59.30
59977;DHT22;45837;51.076;3.578;2022-09-09T08:23:53;22.20;59.30
59977;DHT22;45837;51.076;3.578;2022-09-09T08:26:22;22.20;59.20
59977;DHT22;45837;51.076;3.578;2022-09-09T08:28:50;22.20;59.20
59977;DHT22;45837;51.076;3.578;2022-09-09T08:31:23;22.10;59.20
59977;DHT22;45837;51.076;3.578;2022-09-09T08:33:50;22.10;59.20
59977;DHT22;45837;51.076;3.578;2022-09-09T08:36:19;22.20;59.30
59977;DHT22;45837;51.076;3.578;2022-09-09T08:38:50;22.10;59.20
59977;DHT22;45837;51.076;3.578;2022-09-09T08:43:51;22.20;59.40
59977;DHT22;45837;51.076;3.578;2022-09-09T08:46:26;22.20;59.30
59977;DHT22;45837;51.076;3.578;2022-09-09T08:49:29;22.20;59.40
59977;DHT22;45837;51.076;3.578;2022-09-09T08:51:59;22.20;59.40
59977;DHT22;45837;51.076;3.578;2022-09-09T08:54:30;22.10;59.30
59977;DHT22;45837;51.076;3.578;2022-09-09T08:56:59;22.10;59.40
59977;DHT22;45837;51.076;3.578;2022-09-09T08:59:25;22.10;59.40
59977;DHT22;45837;51.076;3.578;2022-09-09T09:04:53;22.10;59.50
59977;DHT22;45837;51.076;3.578;2022-09-09T09:10:45;22.10;59.60
59977;DHT22;45837;51.076;3.578;2022-09-09T09:13:19;22.10;59.60
59977;DHT22;45837;51.076;3.578;2022-09-09T09:15:58;22.10;59.60
59977;DHT22;45837;51.076;3.578;2022-09-09T09:18:25;22.10;59.80
59977;DHT22;45837;51.076;3.578;2022-09-09T09:23:40;22.10;59.80
59977;DHT22;45837;51.076;3.578;2022-09-09T09:26:09;22.10;59.80
59977;DHT22;45837;51.076;3.578;2022-09-09T09:28:39;22.20;60.50
59977;DHT22;45837;51.076;3.578;2022-09-09T09:31:12;22.20;59.90
59977;DHT22;45837;51.076;3.578;2022-09-09T09:33:51;22.10;59.90
59977;DHT22;45837;51.076;3.578;2022-09-09T09:36:24;22.20;60.20
59977;DHT22;45837;51.076;3.578;2022-09-09T09:38:58;22.20;60.00
59977;DHT22;45837;51.076;3.578;2022-09-09T09:41:39;22.20;60.00
59977;DHT22;45837;51.076;3.578;2022-09-09T09:44:26;22.20;60.10
59977;DHT22;45837;51.076;3.578;2022-09-09T09:47:04;22.20;60.10
59977;DHT22;45837;51.076;3.578;2022-09-09T09:49:30;22.30;60.20
59977;DHT22;45837;51.076;3.578;2022-09-09T09:52:03;22.30;60.00
59977;DHT22;45837;51.076;3.578;2022-09-09T09:54:34;22.30;60.00
59977;DHT22;45837;51.076;3.578;2022-09-09T09:57:14;22.20;60.00
59977;DHT22;45837;51.076;3.578;2022-09-09T09:59:42;22.30;60.00
59977;DHT22;45837;51.076;3.578;2022-09-09T10:02:25;22.30;60.10
59977;DHT22;45837;51.076;3.578;2022-09-09T10:05:12;22.30;60.00
59977;DHT22;45837;51.076;3.578;2022-09-09T10:07:39;22.30;60.00
59977;DHT22;45837;51.076;3.578;2022-09-09T10:10:08;22.30;60.00
59977;DHT22;45837;51.076;3.578;2022-09-09T10:22:51;22.30;59.90
59977;DHT22;45837;51.076;3.578;2022-09-09T10:33:37;22.40;60.10
59977;DHT22;45837;51.076;3.578;2022-09-09T10:36:21;22.40;60.00
59977;DHT22;45837;51.076;3.578;2022-09-09T10:39:03;22.40;59.90
59977;DHT22;45837;51.076;3.578;2022-09-09T10:44:27;22.40;60.00
59977;DHT22;45837;51.076;3.578;2022-09-09T10:46:58;22.40;59.80
59977;DHT22;45837;51.076;3.578;2022-09-09T10:52:54;22.50;59.70
59977;DHT22;45837;51.076;3.578;2022-09-09T10:55:26;22.50;59.60
59977;DHT22;45837;51.076;3.578;2022-09-09T10:57:58;22.50;59.70
59977;DHT22;45837;51.076;3.578;2022-09-09T11:00:39;22.50;59.90
59977;DHT22;45837;51.076;3.578;2022-09-09T11:03:06;22.50;59.80
59977;DHT22;45837;51.076;3.578;2022-09-09T11:05:43;22.50;59.80
59977;DHT22;45837;51.076;3.578;2022-09-09T11:08:13;22.50;59.80
59977;DHT22;45837;51.076;3.578;2022-09-09T11:11:02;22.50;59.60
59977;DHT22;45837;51.076;3.578;2022-09-09T11:13:37;22.50;59.50
59977;DHT22;45837;51.076;3.578;2022-09-09T11:18:46;22.60;59.50
59977;DHT22;45837;51.076;3.578;2022-09-09T11:21:32;22.60;59.40
59977;DHT22;45837;51.076;3.578;2022-09-09T11:24:19;22.60;59.50
59977;DHT22;45837;51.076;3.578;2022-09-09T11:26:55;22.60;59.40
59977;DHT22;45837;51.076;3.578;2022-09-09T11:35:45;22.60;59.40
59977;DHT22;45837;51.076;3.578;2022-09-09T11:38:18;22.60;59.50
59977;DHT22;45837;51.076;3.578;2022-09-09T11:40:45;22.60;59.40
59977;DHT22;45837;51.076;3.578;2022-09-09T11:43:19;22.60;59.40
59977;DHT22;45837;51.076;3.578;2022-09-09T11:45:58;22.70;59.40
59977;DHT22;45837;51.076;3.578;2022-09-09T11:48:38;22.70;59.40
59977;DHT22;45837;51.076;3.578;2022-09-09T11:51:12;22.70;59.20
59977;DHT22;45837;51.076;3.578;2022-09-09T11:53:51;22.70;59.20
59977;DHT22;45837;51.076;3.578;2022-09-09T11:59:02;22.70;59.30
59977;DHT22;45837;51.076;3.578;2022-09-09T12:01:41;22.70;59.30
59977;DHT22;45837;51.076;3.578;2022-09-09T12:06:46;22.70;59.20
59977;DHT22;45837;51.076;3.578;2022-09-09T12:11:43;22.70;59.10
59977;DHT22;45837;51.076;3.578;2022-09-09T12:14:20;22.80;59.30
59977;DHT22;45837;51.076;3.578;2022-09-09T12:16:46;22.80;59.10
59977;DHT22;45837;51.076;3.578;2022-09-09T12:19:19;22.80;59.10
59977;DHT22;45837;51.076;3.578;2022-09-09T12:21:54;22.80;59.00
59977;DHT22;45837;51.076;3.578;2022-09-09T12:24:54;22.70;59.20
59977;DHT22;45837;51.076;3.578;2022-09-09T12:30:01;22.80;59.40
59977;DHT22;45837;51.076;3.578;2022-09-09T12:32:28;22.80;59.80
59977;DHT22;45837;51.076;3.578;2022-09-09T12:35:00;22.80;59.00
59977;DHT22;45837;51.076;3.578;2022-09-09T12:42:29;22.80;59.00
59977;DHT22;45837;51.076;3.578;2022-09-09T12:44:59;22.80;59.00
59977;DHT22;45837;51.076;3.578;2022-09-09T12:47:37;22.80;59.00
59977;DHT22;45837;51.076;3.578;2022-09-09T12:50:04;22.60;59.00
59977;DHT22;45837;51.076;3.578;2022-09-09T12:52:35;22.80;58.90
59977;DHT22;45837;51.076;3.578;2022-09-09T12:55:04;22.80;59.10
59977;DHT22;45837;51.076;3.578;2022-09-09T12:57:36;22.80;59.00
59977;DHT22;45837;51.076;3.578;2022-09-09T13:00:22;22.80;59.10
59977;DHT22;45837;51.076;3.578;2022-09-09T13:02:56;22.80;59.40
59977;DHT22;45837;51.076;3.578;2022-09-09T13:05:27;22.80;59.30
59977;DHT22;45837;51.076;3.578;2022-09-09T13:08:04;22.80;59.50
59977;DHT22;45837;51.076;3.578;2022-09-09T13:10:36;22.80;59.60
59977;DHT22;45837;51.076;3.578;2022-09-09T13:13:13;22.80;59.80
59977;DHT22;45837;51.076;3.578;2022-09-09T13:15:40;22.80;59.80
59977;DHT22;45837;51.076;3.578;2022-09-09T13:18:14;22.80;59.80
59977;DHT22;45837;51.076;3.578;2022-09-09T13:20:46;22.80;59.70
59977;DHT22;45837;51.076;3.578;2022-09-09T13:23:12;22.80;59.80
59977;DHT22;45837;51.076;3.578;2022-09-09T13:25:39;22.80;59.80
59977;DHT22;45837;51.076;3.578;2022-09-09T13:28:20;22.80;59.90
59977;DHT22;45837;51.076;3.578;2022-09-09T13:33:30;22.80;59.60
59977;DHT22;45837;51.076;3.578;2022-09-09T13:35:59;22.80;59.70
59977;DHT22;45837;51.076;3.578;2022-09-09T13:38:28;22.80;59.50
59977;DHT22;45837;51.076;3.578;2022-09-09T13:41:06;22.80;59.40
59977;DHT22;45837;51.076;3.578;2022-09-09T13:43:44;22.90;59.40
59977;DHT22;45837;51.076;3.578;2022-09-09T13:48:56;22.90;59.20
59977;DHT22;45837;51.076;3.578;2022-09-09T13:51:34;22.90;59.10
59977;DHT22;45837;51.076;3.578;2022-09-09T13:54:01;22.90;59.10
59977;DHT22;45837;51.076;3.578;2022-09-09T13:56:27;22.80;59.00
59977;DHT22;45837;51.076;3.578;2022-09-09T13:58:52;22.80;59.40
59977;DHT22;45837;51.076;3.578;2022-09-09T14:01:18;22.80;59.50
59977;DHT22;45837;51.076;3.578;2022-09-09T14:03:44;22.70;59.80
59977;DHT22;45837;51.076;3.578;2022-09-09T14:06:10;22.90;59.90
59977;DHT22;45837;51.076;3.578;2022-09-09T14:08:36;22.90;59.80
59977;DHT22;45837;51.076;3.578;2022-09-09T14:11:03;22.80;59.80
59977;DHT22;45837;51.076;3.578;2022-09-09T14:13:29;22.80;60.50
59977;DHT22;45837;51.076;3.578;2022-09-09T14:15:55;22.80;61.60
59977;DHT22;45837;51.076;3.578;2022-09-09T14:18:22;22.80;62.00
59977;DHT22;45837;51.076;3.578;2022-09-09T14:20:48;22.80;62.40
59977;DHT22;45837;51.076;3.578;2022-09-09T14:23:15;22.80;62.60
59977;DHT22;45837;51.076;3.578;2022-09-09T14:25:45;22.80;62.90
59977;DHT22;45837;51.076;3.578;2022-09-09T14:28:13;22.80;62.60
59977;DHT22;45837;51.076;3.578;2022-09-09T14:30:42;22.80;62.30
59977;DHT22;45837;51.076;3.578;2022-09-09T14:33:12;22.80;62.50
59977;DHT22;45837;51.076;3.578;2022-09-09T14:35:38;22.80;62.80
59977;DHT22;45837;51.076;3.578;2022-09-09T14:38:07;22.80;62.50
59977;DHT22;45837;51.076;3.578;2022-09-09T14:40:34;22.80;62.10
59977;DHT22;45837;51.076;3.578;2022-09-09T14:43:00;22.80;62.40
59977;DHT22;45837;51.076;3.578;2022-09-09T14:45:26;22.70;62.30
59977;DHT22;45837;51.076;3.578;2022-09-09T14:47:52;22.70;62.40
59977;DHT22;45837;51.076;3.578;2022-09-09T14:50:19;22.70;62.80
59977;DHT22;45837;51.076;3.578;2022-09-09T14:52:45;22.70;63.00
59977;DHT22;45837;51.076;3.578;2022-09-09T14:55:10;22.60;63.20
59977;DHT22;45837;51.076;3.578;2022-09-09T14:57:37;22.60;63.00
59977;DHT22;45837;51.076;3.578;2022-09-09T15:00:05;22.70;63.10
59977;DHT22;45837;51.076;3.578;2022-09-09T15:02:31;22.70;63.00
59977;DHT22;45837;51.076;3.578;2022-09-09T15:04:57;22.70;62.90
59977;DHT22;45837;51.076;3.578;2022-09-09T15:07:24;22.70;62.70
59977;DHT22;45837;51.076;3.578;2022-09-09T15:09:50;22.70;63.40
59977;DHT22;45837;51.076;3.578;2022-09-09T15:12:15;22.70;62.70
59977;DHT22;45837;51.076;3.578;2022-09-09T15:14:44;22.70;62.30
59977;DHT22;45837;51.076;3.578;2022-09-09T15:17:11;22.70;62.30
59977;DHT22;45837;51.076;3.578;2022-09-09T15:19:37;22.70;62.10
59977;DHT22;45837;51.076;3.578;2022-09-09T15:22:06;22.70;62.40
59977;DHT22;45837;51.076;3.578;2022-09-09T15:24:32;22.70;62.20
59977;DHT22;45837;51.076;3.578;2022-09-09T15:26:59;22.70;63.10
59977;DHT22;45837;51.076;3.578;2022-09-09T15:29:25;22.80;62.20
59977;DHT22;45837;51.076;3.578;2022-09-09T15:31:54;22.70;62.10
59977;DHT22;45837;51.076;3.578;2022-09-09T15:34:21;22.80;62.20
59977;DHT22;45837;51.076;3.578;2022-09-09T15:36:47;22.80;62.30
59977;DHT22;45837;51.076;3.578;2022-09-09T15:39:17;22.80;62.20
59977;DHT22;45837;51.076;3.578;2022-09-09T15:41:44;22.80;62.20
59977;DHT22;45837;51.076;3.578;2022-09-09T15:44:11;22.80;62.10
59977;DHT22;45837;51.076;3.578;2022-09-09T15:46:39;22.80;62.00
59977;DHT22;45837;51.076;3.578;2022-09-09T15:49:16;22.80;61.90
59977;DHT22;45837;51.076;3.578;2022-09-09T15:51:46;22.80;62.00
59977;DHT22;45837;51.076;3.578;2022-09-09T15:54:15;22.80;62.10
59977;DHT22;45837;51.076;3.578;2022-09-09T15:56:43;22.80;62.00
59977;DHT22;45837;51.076;3.578;2022-09-09T15:59:09;22.80;61.90
59977;DHT22;45837;51.076;3.578;2022-09-09T16:01:35;22.90;62.10
59977;DHT22;45837;51.076;3.578;2022-09-09T16:04:01;22.90;63.20
59977;DHT22;45837;51.076;3.578;2022-09-09T16:06:28;22.90;62.80
59977;DHT22;45837;51.076;3.578;2022-09-09T16:08:55;22.90;62.60
59977;DHT22;45837;51.076;3.578;2022-09-09T16:11:24;22.90;62.60
59977;DHT22;45837;51.076;3.578;2022-09-09T16:13:51;22.90;62.10
59977;DHT22;45837;51.076;3.578;2022-09-09T16:16:20;22.90;61.90
59977;DHT22;45837;51.076;3.578;2022-09-09T16:18:52;22.90;61.60
59977;DHT22;45837;51.076;3.578;2022-09-09T16:21:22;23.00;61.60
59977;DHT22;45837;51.076;3.578;2022-09-09T16:23:50;23.00;61.70
59977;DHT22;45837;51.076;3.578;2022-09-09T16:26:17;22.90;61.70
59977;DHT22;45837;51.076;3.578;2022-09-09T16:28:43;22.90;61.10
59977;DHT22;45837;51.076;3.578;2022-09-09T16:31:23;22.90;61.00
59977;DHT22;45837;51.076;3.578;2022-09-09T16:33:49;23.00;60.70
59977;DHT22;45837;51.076;3.578;2022-09-09T16:36:21;23.00;60.50
59977;DHT22;45837;51.076;3.578;2022-09-09T16:38:51;22.90;60.20
59977;DHT22;45837;51.076;3.578;2022-09-09T16:41:17;22.90;60.20
59977;DHT22;45837;51.076;3.578;2022-09-09T16:43:56;22.90;60.40
59977;DHT22;45837;51.076;3.578;2022-09-09T16:46:23;22.90;60.50
59977;DHT22;45837;51.076;3.578;2022-09-09T16:48:50;22.90;60.50
59977;DHT22;45837;51.076;3.578;2022-09-09T16:51:19;22.90;60.40
59977;DHT22;45837;51.076;3.578;2022-09-09T16:53:45;22.90;60.40
59977;DHT22;45837;51.076;3.578;2022-09-09T16:56:23;22.90;60.80
59977;DHT22;45837;51.076;3.578;2022-09-09T16:58:57;22.90;60.30
59977;DHT22;45837;51.076;3.578;2022-09-09T17:01:25;22.90;60.50
59977;DHT22;45837;51.076;3.578;2022-09-09T17:03:54;22.90;61.50
59977;DHT22;45837;51.076;3.578;2022-09-09T17:06:21;22.90;63.10
59977;DHT22;45837;51.076;3.578;2022-09-09T17:08:47;23.00;63.50
59977;DHT22;45837;51.076;3.578;2022-09-09T17:11:16;22.90;63.30
59977;DHT22;45837;51.076;3.578;2022-09-09T17:13:47;23.00;63.50
59977;DHT22;45837;51.076;3.578;2022-09-09T17:16:15;23.00;63.90
59977;DHT22;45837;51.076;3.578;2022-09-09T17:18:41;23.00;63.90
59977;DHT22;45837;51.076;3.578;2022-09-09T17:21:09;23.00;63.90
59977;DHT22;45837;51.076;3.578;2022-09-09T17:23:36;23.00;63.80
59977;DHT22;45837;51.076;3.578;2022-09-09T17:26:07;23.10;63.90
59977;DHT22;45837;51.076;3.578;2022-09-09T17:28:35;23.10;64.20
59977;DHT22;45837;51.076;3.578;2022-09-09T17:31:01;23.10;64.20
59977;DHT22;45837;51.076;3.578;2022-09-09T17:33:29;23.10;64.00
59977;DHT22;45837;51.076;3.578;2022-09-09T17:36:00;23.10;63.80